Terminal Aerodrome Forecast
Issued by NWS

Home | Current Version | Previous Version | Text Only | Print | Product List | Glossary On
Versions: 1 2 3 4 5 6 7 8 9 10 11 12 13 14 15 16 17 18 19 20 21 22 23 24 25 26 27 28 29 30 31 32 33 34
000
FTAK31 PANC 291134
TAFAEN
TAF
PAEN 291134Z 2912/3012 VRB05KT P6SM -RA BKN015 OVC020
      TEMPO 2912/2916 1SM BR BKN005
     FM291600 VRB02KT P6SM VCSH BKN050
     FM291800 23008KT P6SM FEW015 SCT060
     FM300600 01007KT P6SM BKN100=

USA.gov is the U.S. government's official web portal to all federal, state and local government web resources and services.